Time;durP1;ratioP1;P1;durP2;ratioP2;P2;SDS_P1;SDS_P2;PMS_P1;PMS_P2;Temp;Humidity;BMP_temperature;BMP_pressure;BME280_temperature;BME280_humidity;BME280_pressure;Samples;Min_cycle;Max_cycle;Signal;HPM_P1;HPM_P2
2021/09/06 00:01:35;;;;;;;23.43;14.17;;;14.20;99.90;;;;;;4991381;28;20203;-76
2021/09/06 00:04:00;;;;;;;20.47;14.07;;;14.20;99.90;;;;;;4992090;28;20193;-76
2021/09/06 00:06:26;;;;;;;22.27;14.63;;;14.20;99.90;;;;;;4992038;28;20187;-76
2021/09/06 00:08:51;;;;;;;19.53;13.70;;;14.30;99.90;;;;;;4991805;28;20176;-76
2021/09/06 00:11:17;;;;;;;20.13;13.97;;;14.20;99.90;;;;;;5008385;28;20763;-76
2021/09/06 00:13:42;;;;;;;18.17;13.03;;;14.10;99.90;;;;;;4991927;28;20196;-76
2021/09/06 00:16:08;;;;;;;19.97;13.93;;;14.10;99.90;;;;;;4991796;28;20251;-76
2021/09/06 00:18:34;;;;;;;19.10;13.00;;;14.10;99.90;;;;;;4993105;28;20530;-76
2021/09/06 00:21:01;;;;;;;18.40;12.83;;;14.10;99.90;;;;;;4991937;28;20238;-76
2021/09/06 00:23:27;;;;;;;18.60;13.03;;;14.00;99.90;;;;;;4991830;28;20165;-76
2021/09/06 00:25:53;;;;;;;20.17;13.20;;;14.00;99.90;;;;;;4991831;28;20172;-76
2021/09/06 00:28:18;;;;;;;16.67;12.00;;;14.00;99.90;;;;;;4991881;28;20179;-76
2021/09/06 00:30:44;;;;;;;18.80;11.90;;;14.00;99.90;;;;;;4991433;28;20184;-76
2021/09/06 00:33:09;;;;;;;15.50;11.57;;;13.90;99.90;;;;;;4992067;28;20477;-76
2021/09/06 00:35:35;;;;;;;20.07;12.93;;;13.90;99.90;;;;;;4991828;28;20204;-76
2021/09/06 00:38:01;;;;;;;15.77;12.33;;;13.80;99.90;;;;;;4992299;28;20172;-76
2021/09/06 00:40:27;;;;;;;18.30;12.23;;;13.80;99.90;;;;;;4992674;28;20227;-76
2021/09/06 00:42:52;;;;;;;16.80;12.20;;;13.80;99.90;;;;;;4991690;28;20247;-76
2021/09/06 00:45:18;;;;;;;16.83;12.00;;;13.70;99.90;;;;;;4991713;28;20571;-76
2021/09/06 00:47:43;;;;;;;18.20;12.53;;;13.70;99.90;;;;;;4992696;28;20177;-76
2021/09/06 00:50:12;;;;;;;19.50;12.10;;;13.70;99.90;;;;;;4992649;28;20176;-76
2021/09/06 00:52:39;;;;;;;18.77;12.50;;;13.70;99.90;;;;;;4991527;28;20176;-76
2021/09/06 00:55:05;;;;;;;16.07;11.80;;;13.60;99.90;;;;;;4991155;28;20278;-76
2021/09/06 00:57:31;;;;;;;16.93;12.53;;;13.60;99.90;;;;;;4991422;28;20176;-76
2021/09/06 00:59:56;;;;;;;16.67;11.93;;;13.60;99.90;;;;;;4991138;28;20200;-76
2021/09/06 01:02:22;;;;;;;18.83;12.20;;;13.50;99.90;;;;;;4991466;28;20180;-76
2021/09/06 01:04:48;;;;;;;18.03;12.47;;;13.50;99.90;;;;;;4991312;28;20663;-76
2021/09/06 01:07:13;;;;;;;18.13;12.20;;;13.50;99.90;;;;;;4991392;28;20185;-76
2021/09/06 01:09:39;;;;;;;16.60;11.47;;;13.40;99.90;;;;;;4992256;28;20183;-76
2021/09/06 01:12:05;;;;;;;15.97;11.37;;;13.40;99.90;;;;;;4991548;28;20180;-76
2021/09/06 01:14:31;;;;;;;18.00;12.37;;;13.40;99.90;;;;;;4995139;28;20204;-76
2021/09/06 01:16:57;;;;;;;18.73;12.53;;;13.30;99.90;;;;;;5011236;28;20193;-76
2021/09/06 01:19:22;;;;;;;18.87;12.47;;;13.30;99.90;;;;;;4994918;28;20176;-76
2021/09/06 01:21:48;;;;;;;17.67;12.03;;;13.30;99.90;;;;;;4995041;28;20559;-76
2021/09/06 01:24:18;;;;;;;17.83;12.17;;;13.20;99.90;;;;;;4994966;28;20200;-76
2021/09/06 01:26:45;;;;;;;17.23;11.60;;;13.20;99.90;;;;;;4996611;28;20180;-76
2021/09/06 01:29:11;;;;;;;17.17;11.80;;;13.20;99.90;;;;;;4994728;28;20184;-76
2021/09/06 01:31:36;;;;;;;14.83;10.90;;;13.20;99.90;;;;;;4996401;28;20339;-76
2021/09/06 01:34:02;;;;;;;18.17;12.00;;;13.10;99.90;;;;;;4995041;28;20243;-76
2021/09/06 01:36:27;;;;;;;16.00;11.53;;;13.10;99.90;;;;;;4994802;28;20626;-76
2021/09/06 01:38:53;;;;;;;15.47;10.47;;;13.10;99.90;;;;;;4994632;28;20413;-76
2021/09/06 01:41:18;;;;;;;17.50;11.10;;;13.10;99.90;;;;;;4995816;28;20199;-76
2021/09/06 01:43:44;;;;;;;15.40;11.33;;;13.00;99.90;;;;;;4994540;28;20200;-76
2021/09/06 01:46:09;;;;;;;15.80;11.27;;;13.00;99.90;;;;;;4994521;28;20195;-76
2021/09/06 01:48:35;;;;;;;16.67;11.63;;;12.90;99.90;;;;;;4995758;28;20180;-76
2021/09/06 01:51:00;;;;;;;13.90;10.20;;;12.90;99.90;;;;;;4995653;28;20259;-76
2021/09/06 01:53:26;;;;;;;14.13;10.70;;;12.80;99.90;;;;;;4994501;28;20632;-76
2021/09/06 01:55:51;;;;;;;14.27;10.90;;;12.80;99.90;;;;;;4994437;28;20682;-76
2021/09/06 01:58:17;;;;;;;14.93;10.20;;;12.80;99.90;;;;;;5010585;28;20180;-76
2021/09/06 02:00:42;;;;;;;13.53;10.23;;;12.80;99.90;;;;;;4994091;28;20204;-76
2021/09/06 02:03:08;;;;;;;16.37;11.47;;;12.90;99.90;;;;;;4994345;28;20184;-76
2021/09/06 02:05:33;;;;;;;16.57;10.40;;;12.70;99.90;;;;;;4994221;28;20210;-76
2021/09/06 02:07:59;;;;;;;15.67;10.63;;;12.70;99.90;;;;;;4994262;28;20192;-76
2021/09/06 02:10:25;;;;;;;14.53;10.23;;;12.70;99.90;;;;;;4993976;28;20326;-76
2021/09/06 02:12:50;;;;;;;16.03;10.87;;;12.70;99.90;;;;;;4994094;28;20299;-76
2021/09/06 02:15:16;;;;;;;14.17;10.67;;;12.70;99.90;;;;;;4994116;28;20228;-76
2021/09/06 02:17:41;;;;;;;15.60;10.00;;;12.70;99.90;;;;;;4994099;28;20176;-76
2021/09/06 02:20:07;;;;;;;17.00;10.37;;;12.60;99.90;;;;;;4993813;28;20231;-76
2021/09/06 02:22:33;;;;;;;16.20;9.83;;;12.50;99.90;;;;;;4994023;28;20188;-76
2021/09/06 02:24:58;;;;;;;13.23;10.30;;;12.50;99.90;;;;;;4994205;28;20242;-76
2021/09/06 02:27:24;;;;;;;16.90;11.73;;;12.50;99.90;;;;;;4993840;28;20230;-76
2021/09/06 02:29:49;;;;;;;16.50;11.47;;;12.40;99.90;;;;;;4993142;28;20184;-76
2021/09/06 02:32:15;;;;;;;15.03;10.87;;;12.50;99.90;;;;;;4993932;28;20192;-76
2021/09/06 02:34:40;;;;;;;16.80;11.83;;;12.40;99.90;;;;;;4993769;28;20196;-76
2021/09/06 02:37:06;;;;;;;14.50;10.83;;;12.30;99.90;;;;;;4993915;28;20186;-76
2021/09/06 02:39:31;;;;;;;17.50;11.43;;;12.20;99.90;;;;;;4993294;28;20632;-76
2021/09/06 02:41:58;;;;;;;17.63;11.57;;;12.30;99.90;;;;;;4993572;28;20546;-76
2021/09/06 02:44:29;;;;;;;16.77;11.87;;;12.20;99.90;;;;;;4993519;28;20670;-76
2021/09/06 02:46:55;;;;;;;17.87;11.97;;;12.20;99.90;;;;;;4993631;28;20184;-76
2021/09/06 02:49:21;;;;;;;16.30;11.47;;;12.10;99.90;;;;;;4993199;28;20179;-76
2021/09/06 02:51:46;;;;;;;16.37;11.63;;;12.10;99.90;;;;;;4993481;28;20618;-76
2021/09/06 02:54:12;;;;;;;17.37;11.80;;;12.20;99.90;;;;;;5023799;23;20293;-77
2021/09/06 02:56:38;;;;;;;16.73;11.30;;;12.10;99.90;;;;;;5013997;28;20174;-77
2021/09/06 02:59:04;;;;;;;16.37;10.67;;;12.10;99.90;;;;;;5013575;28;20262;-77
2021/09/06 03:01:29;;;;;;;16.87;11.90;;;12.10;99.90;;;;;;5014590;28;20257;-80
2021/09/06 03:03:55;;;;;;;14.20;10.77;;;12.10;99.90;;;;;;5005696;28;20610;-80
2021/09/06 03:06:20;;;;;;;17.17;10.90;;;12.00;99.90;;;;;;5004931;28;20226;-79
2021/09/06 03:08:46;;;;;;;15.37;10.53;;;12.00;99.90;;;;;;5005153;28;20175;-80
2021/09/06 03:11:11;;;;;;;17.37;11.00;;;11.90;99.90;;;;;;5022573;28;20176;-80
2021/09/06 03:13:37;;;;;;;15.90;10.67;;;12.00;99.90;;;;;;5005050;28;20429;-79
2021/09/06 03:16:03;;;;;;;16.20;11.37;;;11.90;99.90;;;;;;5005012;28;20180;-80
2021/09/06 03:18:28;;;;;;;15.63;10.73;;;11.90;99.90;;;;;;5005622;28;20662;-80
2021/09/06 03:20:54;;;;;;;15.30;10.47;;;11.90;99.90;;;;;;5004176;28;20305;-80
2021/09/06 03:23:19;;;;;;;16.33;11.40;;;11.90;99.90;;;;;;5020635;28;20187;-80
2021/09/06 03:25:45;;;;;;;17.40;10.63;;;11.90;99.90;;;;;;5021522;28;20200;-80
2021/09/06 03:28:11;;;;;;;16.97;11.00;;;11.90;99.90;;;;;;5018428;28;20183;-77
2021/09/06 03:30:37;;;;;;;14.60;10.50;;;11.90;99.90;;;;;;4999092;28;20180;-80
2021/09/06 03:33:03;;;;;;;15.83;10.50;;;11.90;99.90;;;;;;5005949;28;20192;-79
2021/09/06 03:35:28;;;;;;;14.13;10.33;;;11.90;99.90;;;;;;5005144;28;20250;-80
2021/09/06 03:37:54;;;;;;;16.10;10.73;;;11.80;99.90;;;;;;5004260;28;20194;-79
2021/09/06 03:40:20;;;;;;;15.47;10.67;;;11.70;99.90;;;;;;4999288;28;20678;-77
2021/09/06 03:42:45;;;;;;;18.67;11.23;;;11.70;99.90;;;;;;5019694;28;20175;-80
2021/09/06 03:45:12;;;;;;;16.93;11.40;;;11.60;99.90;;;;;;5004557;28;20211;-80
2021/09/06 03:47:37;;;;;;;15.63;10.30;;;11.60;99.90;;;;;;5016750;28;20262;-78
2021/09/06 03:50:03;;;;;;;15.80;10.80;;;11.50;99.90;;;;;;5012948;28;20207;-79
2021/09/06 03:52:29;;;;;;;15.60;10.80;;;11.50;99.90;;;;;;4997094;28;20187;-77
2021/09/06 03:54:54;;;;;;;16.80;11.00;;;11.60;99.90;;;;;;4997039;28;20215;-80
2021/09/06 03:57:20;;;;;;;16.80;11.00;;;11.50;99.90;;;;;;5014516;28;20180;-80
2021/09/06 03:59:45;;;;;;;15.60;10.80;;;11.50;99.90;;;;;;5014266;28;20183;-79
2021/09/06 04:02:11;;;;;;;14.30;10.30;;;11.50;99.90;;;;;;4997603;28;20180;-79
2021/09/06 04:04:36;;;;;;;14.87;10.50;;;11.50;99.90;;;;;;4997739;28;20274;-77
2021/09/06 04:07:03;;;;;;;18.90;11.20;;;11.40;99.90;;;;;;4996925;28;20179;-77
2021/09/06 04:09:29;;;;;;;15.73;11.20;;;11.40;99.90;;;;;;5013082;28;20651;-77
2021/09/06 04:11:55;;;;;;;17.10;11.73;;;11.40;99.90;;;;;;5014180;28;20803;-80
2021/09/06 04:14:22;;;;;;;16.47;11.30;;;11.30;99.90;;;;;;4996647;28;20207;-78
2021/09/06 04:16:48;;;;;;;16.93;11.23;;;11.30;99.90;;;;;;4997144;28;20559;-76
2021/09/06 04:19:13;;;;;;;20.50;12.60;;;11.30;99.90;;;;;;4996729;28;20183;-79
2021/09/06 04:21:39;;;;;;;18.43;11.77;;;11.30;99.90;;;;;;4997244;28;20222;-79
2021/09/06 04:24:04;;;;;;;15.70;10.70;;;11.30;99.90;;;;;;4997232;28;20207;-77
2021/09/06 04:26:30;;;;;;;17.03;10.50;;;11.30;99.90;;;;;;5013894;28;20179;-79
2021/09/06 04:28:56;;;;;;;18.57;11.00;;;11.30;99.90;;;;;;4997033;28;20183;-80
2021/09/06 04:31:22;;;;;;;17.07;11.30;;;11.30;99.90;;;;;;4997593;28;20187;-80
2021/09/06 04:33:48;;;;;;;14.87;9.97;;;11.30;99.90;;;;;;5014120;28;20229;-79
2021/09/06 04:36:14;;;;;;;17.93;11.57;;;11.30;99.90;;;;;;4996798;28;20537;-76
2021/09/06 04:38:39;;;;;;;16.77;10.73;;;11.20;99.90;;;;;;4996992;28;20199;-80
2021/09/06 04:41:05;;;;;;;16.63;10.70;;;11.20;99.90;;;;;;4997381;28;20567;-79
2021/09/06 04:43:30;;;;;;;13.93;10.03;;;11.20;99.90;;;;;;5013517;28;20175;-78
2021/09/06 04:45:56;;;;;;;16.40;10.90;;;11.20;99.90;;;;;;4997073;28;20176;-79
2021/09/06 04:48:21;;;;;;;16.53;11.00;;;11.10;99.90;;;;;;4996539;28;20191;-80
2021/09/06 04:50:47;;;;;;;17.50;10.77;;;11.10;99.90;;;;;;5013501;28;20180;-80
2021/09/06 04:53:13;;;;;;;17.33;10.60;;;11.10;99.90;;;;;;5014050;28;20234;-80
2021/09/06 04:55:39;;;;;;;16.13;10.37;;;11.10;99.90;;;;;;5013414;28;20242;-84
2021/09/06 04:58:05;;;;;;;15.40;10.60;;;11.10;99.90;;;;;;4996500;28;20191;-83
2021/09/06 05:00:31;;;;;;;15.23;10.10;;;11.10;99.90;;;;;;4997010;28;20218;-83
2021/09/06 05:02:57;;;;;;;14.67;10.40;;;11.00;99.90;;;;;;4997160;28;20185;-83
2021/09/06 05:05:22;;;;;;;14.77;10.53;;;11.10;99.90;;;;;;4998264;28;20206;-81
2021/09/06 05:07:48;;;;;;;18.87;11.53;;;11.00;99.90;;;;;;4997995;28;20176;-80
2021/09/06 05:10:14;;;;;;;15.33;10.40;;;11.00;99.90;;;;;;4997193;28;20193;-82
2021/09/06 05:12:39;;;;;;;15.73;10.80;;;11.00;99.90;;;;;;4996937;28;20187;-84
2021/09/06 05:15:06;;;;;;;16.17;10.90;;;11.00;99.90;;;;;;4996707;28;20207;-83
2021/09/06 05:17:31;;;;;;;16.70;10.67;;;11.10;99.90;;;;;;4997282;28;20191;-83
2021/09/06 05:19:57;;;;;;;15.00;10.67;;;11.00;99.90;;;;;;5012773;28;20210;-83
2021/09/06 05:22:22;;;;;;;16.97;10.93;;;11.10;99.90;;;;;;4995842;28;20184;-84
2021/09/06 05:24:53;;;;;;;16.53;11.17;;;11.10;99.90;;;;;;4977665;28;20259;-83
2021/09/06 05:27:18;;;;;;;17.53;11.03;;;11.10;99.90;;;;;;4991870;28;20184;-84
2021/09/06 05:29:44;;;;;;;16.33;11.33;;;11.10;99.90;;;;;;4978519;28;20587;-81
2021/09/06 05:32:09;;;;;;;15.97;11.40;;;11.20;99.90;;;;;;4994552;28;20180;-85
2021/09/06 05:34:35;;;;;;;17.37;10.80;;;11.20;99.90;;;;;;5011846;28;20199;-84
2021/09/06 05:37:01;;;;;;;15.10;10.83;;;11.30;99.90;;;;;;4996766;28;20263;-83
2021/09/06 05:39:26;;;;;;;15.37;10.43;;;11.40;99.90;;;;;;4979746;28;20180;-83
2021/09/06 05:41:52;;;;;;;17.13;10.73;;;11.50;99.90;;;;;;4996344;28;20261;-83
2021/09/06 05:44:17;;;;;;;18.33;11.47;;;11.50;99.90;;;;;;4980397;28;20261;-83
2021/09/06 05:46:43;;;;;;;18.07;10.93;;;11.60;99.90;;;;;;4980694;28;20281;-81
2021/09/06 05:49:09;;;;;;;16.80;10.77;;;11.70;99.90;;;;;;4981253;28;20278;-78
2021/09/06 05:51:34;;;;;;;14.20;10.30;;;11.80;99.90;;;;;;4995849;28;20271;-79
2021/09/06 05:54:00;;;;;;;18.10;11.20;;;11.80;99.90;;;;;;4978552;28;20569;-76
2021/09/06 05:56:25;;;;;;;15.40;10.70;;;12.00;99.90;;;;;;5010653;28;20160;-80
2021/09/06 05:58:51;;;;;;;17.10;10.93;;;12.20;99.90;;;;;;4978165;28;20586;-79
2021/09/06 06:01:17;;;;;;;16.60;11.50;;;12.50;99.90;;;;;;4981972;28;20211;-78
2021/09/06 06:03:42;;;;;;;14.27;10.20;;;12.70;99.90;;;;;;5014302;28;20195;-79
2021/09/06 06:06:08;;;;;;;14.10;10.13;;;13.00;99.90;;;;;;4981883;28;20670;-78
2021/09/06 06:08:33;;;;;;;14.37;10.00;;;13.50;99.90;;;;;;4981725;28;20754;-79
2021/09/06 06:10:59;;;;;;;16.07;11.23;;;14.30;99.90;;;;;;4999323;28;20262;-80
2021/09/06 06:13:24;;;;;;;14.90;10.80;;;14.80;99.90;;;;;;5018408;28;20190;-83
2021/09/06 06:15:50;;;;;;;14.90;10.47;;;14.90;99.90;;;;;;4986177;28;20206;-79
2021/09/06 06:18:15;;;;;;;15.43;10.57;;;14.90;99.90;;;;;;4986556;28;20188;-81
2021/09/06 06:20:41;;;;;;;14.90;11.20;;;14.90;99.90;;;;;;4989248;28;20222;-82
2021/09/06 06:23:06;;;;;;;18.00;12.00;;;14.90;99.90;;;;;;4988154;28;20217;-81
2021/09/06 06:25:32;;;;;;;18.63;12.13;;;15.20;99.90;;;;;;4985570;28;20202;-82
2021/09/06 06:27:58;;;;;;;20.13;12.67;;;15.70;99.90;;;;;;5000573;28;20233;-80
2021/09/06 06:30:25;;;;;;;17.13;11.63;;;16.60;99.90;;;;;;5016967;28;20172;-82
2021/09/06 06:32:51;;;;;;;18.07;11.97;;;17.70;99.90;;;;;;5015827;28;20176;-84
2021/09/06 06:35:16;;;;;;;18.07;11.80;;;19.10;99.90;;;;;;5016269;28;20217;-82
2021/09/06 06:37:42;;;;;;;19.10;11.60;;;20.40;99.90;;;;;;4999789;28;20184;-82
2021/09/06 06:40:08;;;;;;;16.70;11.90;;;21.50;99.90;;;;;;4983346;28;20589;-81
2021/09/06 06:42:33;;;;;;;32.00;12.83;;;22.10;99.90;;;;;;5000009;28;20200;-81
2021/09/06 06:44:59;;;;;;;18.13;12.90;;;22.50;99.90;;;;;;4980604;28;20207;-79
2021/09/06 06:47:24;;;;;;;22.63;12.47;;;22.60;99.90;;;;;;4998176;28;20679;-83
2021/09/06 06:49:50;;;;;;;20.20;13.20;;;22.50;99.90;;;;;;4980775;28;20522;-81
2021/09/06 06:52:15;;;;;;;20.80;12.53;;;22.90;99.90;;;;;;5000492;28;20186;-83
2021/09/06 06:54:41;;;;;;;20.10;14.00;;;23.50;99.90;;;;;;4983996;28;20269;-81
2021/09/06 06:57:07;;;;;;;21.00;13.67;;;23.60;99.90;;;;;;4999082;28;20175;-80
2021/09/06 06:59:33;;;;;;;23.03;14.33;;;23.40;99.90;;;;;;5000008;28;20251;-78
2021/09/06 07:01:59;;;;;;;19.10;13.53;;;23.40;99.90;;;;;;5014961;28;20204;-79
2021/09/06 07:04:24;;;;;;;21.50;14.40;;;23.60;99.90;;;;;;4984091;28;20275;-79
2021/09/06 07:06:50;;;;;;;20.63;14.53;;;23.70;99.90;;;;;;4984115;28;20631;-79
2021/09/06 07:09:15;;;;;;;18.77;14.70;;;23.70;99.90;;;;;;5016534;28;20172;-79
2021/09/06 07:11:41;;;;;;;24.23;14.87;;;23.30;99.90;;;;;;4979980;28;20176;-80
2021/09/06 07:14:06;;;;;;;19.08;15.10;;;22.60;99.90;;;;;;4979583;28;20605;-80
2021/09/06 07:16:32;;;;;;;21.42;14.98;;;21.70;99.90;;;;;;5012602;28;20235;-79
2021/09/06 07:18:58;;;;;;;26.33;15.07;;;21.30;99.90;;;;;;5012312;28;20183;-79
2021/09/06 07:21:23;;;;;;;24.73;15.60;;;20.90;99.90;;;;;;5015264;28;20282;-79
2021/09/06 07:23:50;;;;;;;22.40;14.67;;;20.30;99.90;;;;;;5015750;28;20202;-78
2021/09/06 07:26:16;;;;;;;21.93;15.60;;;19.70;99.90;;;;;;4999425;28;20704;-78
2021/09/06 07:28:41;;;;;;;22.73;15.53;;;19.40;99.90;;;;;;4982646;28;20176;-79
2021/09/06 07:31:08;;;;;;;19.90;14.37;;;19.30;99.90;;;;;;4998619;28;20176;-79
2021/09/06 07:33:34;;;;;;;21.27;15.20;;;19.10;99.90;;;;;;5014965;28;20255;-78
2021/09/06 07:36:00;;;;;;;20.57;15.10;;;18.90;99.90;;;;;;4999154;28;20195;-79
2021/09/06 07:38:25;;;;;;;23.73;16.40;;;19.10;99.90;;;;;;5015301;28;20254;-79
2021/09/06 07:40:51;;;;;;;21.03;14.73;;;19.20;99.90;;;;;;4998989;28;20207;-79
2021/09/06 07:43:17;;;;;;;21.33;15.53;;;19.40;99.90;;;;;;4998978;28;20176;-78
2021/09/06 07:45:43;;;;;;;25.80;16.47;;;19.40;99.90;;;;;;4998971;28;20564;-79
2021/09/06 07:48:09;;;;;;;21.20;15.70;;;19.50;99.90;;;;;;5015672;28;20218;-79
2021/09/06 07:50:35;;;;;;;26.70;16.40;;;19.60;99.90;;;;;;5015162;28;20172;-79
2021/09/06 07:53:00;;;;;;;22.37;16.50;;;19.60;99.90;;;;;;5015250;28;20214;-79
2021/09/06 07:55:26;;;;;;;21.17;15.93;;;19.70;99.90;;;;;;5017929;28;20211;-79
2021/09/06 07:57:51;;;;;;;23.83;15.70;;;19.80;99.90;;;;;;5005871;28;20210;-79
2021/09/06 08:00:17;;;;;;;24.40;15.47;;;20.10;99.90;;;;;;5021885;28;20211;-79
2021/09/06 08:02:49;;;;;;;22.23;15.27;;;20.40;99.90;;;;;;5020621;28;20180;-78
2021/09/06 08:05:26;;;;;;;23.87;14.70;;;20.60;99.90;;;;;;5015486;28;20229;-78
2021/09/06 08:07:51;;;;;;;25.50;15.77;;;20.80;99.90;;;;;;5015993;28;20167;-79
2021/09/06 08:10:17;;;;;;;19.30;14.27;;;21.00;99.90;;;;;;5015337;28;20183;-78
2021/09/06 08:12:43;;;;;;;24.17;15.53;;;21.20;99.90;;;;;;5015407;28;20258;-78
2021/09/06 08:15:09;;;;;;;19.07;14.60;;;21.40;99.90;;;;;;5015259;28;20230;-79
2021/09/06 08:17:35;;;;;;;19.87;14.13;;;21.50;99.90;;;;;;4999247;28;20183;-79
2021/09/06 08:20:06;;;;;;;23.90;13.97;;;21.70;99.90;;;;;;5015285;28;20286;-79
2021/09/06 08:22:33;;;;;;;20.53;14.93;;;21.80;99.90;;;;;;5014489;28;20175;-78
2021/09/06 08:25:05;;;;;;;22.23;15.40;;;21.90;99.90;;;;;;5015181;28;20188;-79
2021/09/06 08:27:31;;;;;;;22.43;15.60;;;21.90;99.90;;;;;;5014663;28;20164;-79
2021/09/06 08:29:56;;;;;;;22.67;15.47;;;21.80;99.90;;;;;;4998386;28;20182;-78
2021/09/06 08:32:22;;;;;;;22.57;15.27;;;21.90;99.90;;;;;;5014963;28;20553;-79
2021/09/06 08:34:49;;;;;;;20.37;14.73;;;22.10;99.90;;;;;;5014945;28;20198;-79
2021/09/06 08:37:15;;;;;;;20.87;15.13;;;22.30;99.90;;;;;;5015085;28;20186;-79
2021/09/06 08:39:41;;;;;;;23.63;14.30;;;22.10;99.90;;;;;;4998817;28;20234;-79
2021/09/06 08:42:08;;;;;;;23.40;15.03;;;21.90;99.90;;;;;;5015647;28;20208;-79
2021/09/06 08:44:35;;;;;;;18.93;14.20;;;21.80;99.90;;;;;;5014908;28;20214;-79
2021/09/06 08:47:01;;;;;;;20.10;13.27;;;22.10;99.90;;;;;;4999299;28;20250;-79
2021/09/06 08:49:27;;;;;;;20.57;13.13;;;22.20;99.90;;;;;;4979208;28;20643;-80
2021/09/06 08:51:52;;;;;;;18.67;13.70;;;22.30;99.90;;;;;;4991518;28;20191;-78
2021/09/06 08:54:18;;;;;;;19.37;13.33;;;22.20;99.90;;;;;;5029073;23;20673;-78
2021/09/06 08:56:44;;;;;;;20.90;13.93;;;22.20;99.90;;;;;;5038144;28;20683;-78
2021/09/06 08:59:09;;;;;;;18.33;14.03;;;22.20;99.90;;;;;;5055520;28;20174;-78
2021/09/06 09:01:43;;;;;;;20.30;12.60;;;22.30;99.90;;;;;;5054551;28;20673;-78
2021/09/06 09:04:26;;;;;;;20.70;13.37;;;22.30;99.90;;;;;;5036831;28;20591;-78
2021/09/06 09:06:53;;;;;;;17.70;12.60;;;22.30;99.90;;;;;;5054212;28;20181;-78
2021/09/06 09:09:33;;;;;;;17.33;13.00;;;22.40;99.90;;;;;;5021134;28;20645;-78
2021/09/06 09:12:08;;;;;;;17.47;11.53;;;22.40;99.90;;;;;;5054017;28;20641;-78
2021/09/06 09:14:35;;;;;;;16.70;12.03;;;22.40;99.90;;;;;;5054374;28;20255;-78
2021/09/06 09:17:01;;;;;;;18.60;12.33;;;22.40;99.90;;;;;;5037720;28;20550;-78
2021/09/06 09:19:27;;;;;;;15.57;11.63;;;22.40;99.90;;;;;;5021417;28;20273;-78
2021/09/06 09:22:00;;;;;;;17.83;12.47;;;22.30;99.90;;;;;;5005850;28;20233;-78
2021/09/06 09:24:26;;;;;;;16.43;11.50;;;22.30;99.90;;;;;;5024557;28;20657;-78
2021/09/06 09:26:54;;;;;;;18.10;11.40;;;22.70;99.90;;;;;;5018656;28;20190;-78
2021/09/06 09:29:20;;;;;;;17.73;12.17;;;23.10;99.90;;;;;;5001014;28;20542;-78
2021/09/06 09:31:52;;;;;;;16.83;11.83;;;23.50;99.90;;;;;;5018150;28;20194;-78
2021/09/06 09:34:18;;;;;;;15.30;11.70;;;23.20;99.90;;;;;;5020433;28;20194;-78
2021/09/06 09:36:43;;;;;;;18.13;12.43;;;22.70;99.90;;;;;;5005663;28;20216;-78
2021/09/06 09:39:17;;;;;;;14.40;11.10;;;22.50;99.90;;;;;;5004963;28;20182;-78
2021/09/06 09:41:47;;;;;;;15.97;10.93;;;22.50;99.90;;;;;;5004889;28;20216;-79
2021/09/06 09:44:20;;;;;;;15.03;11.43;;;22.50;99.90;;;;;;5005640;28;20190;-78
2021/09/06 09:47:00;;;;;;;18.17;11.60;;;22.80;99.90;;;;;;5039476;28;20725;-78
2021/09/06 09:49:26;;;;;;;17.30;11.97;;;22.90;99.90;;;;;;5021439;28;20228;-78
2021/09/06 09:51:52;;;;;;;18.00;11.07;;;22.80;99.90;;;;;;5021512;28;20229;-78
2021/09/06 09:54:17;;;;;;;14.97;10.53;;;22.90;99.90;;;;;;5021558;28;20203;-78
2021/09/06 09:56:44;;;;;;;16.50;11.43;;;23.00;99.90;;;;;;5005629;28;20207;-78
2021/09/06 09:59:10;;;;;;;17.20;11.03;;;23.30;99.90;;;;;;5036521;28;20189;-78
2021/09/06 10:02:00;;;;;;;15.13;10.53;;;23.40;99.90;;;;;;5025261;28;20252;-78
2021/09/06 10:04:28;;;;;;;14.73;10.23;;;23.50;99.90;;;;;;5051600;28;20256;-78
2021/09/06 10:06:54;;;;;;;13.47;9.97;;;23.50;99.90;;;;;;5039292;28;20175;-78
2021/09/06 10:09:20;;;;;;;14.80;9.83;;;23.50;99.90;;;;;;5018641;28;20183;-78
2021/09/06 10:11:46;;;;;;;12.55;9.15;;;23.40;99.90;;;;;;5037200;28;20199;-79
2021/09/06 10:14:12;;;;;;;13.07;9.23;;;23.30;99.90;;;;;;5049789;28;20203;-78
2021/09/06 10:16:39;;;;;;;14.37;10.57;;;23.30;99.90;;;;;;5049696;28;20269;-78
2021/09/06 10:19:08;;;;;;;12.35;9.88;;;23.40;99.90;;;;;;5039491;28;20719;-79
2021/09/06 10:22:00;;;;;;;13.57;9.40;;;23.50;99.90;;;;;;5022097;28;20213;-78
2021/09/06 10:24:26;;;;;;;14.73;10.48;;;23.70;99.90;;;;;;5033690;28;20711;-77
2021/09/06 10:27:02;;;;;;;13.13;9.60;;;23.80;99.90;;;;;;5037104;28;20186;-78
2021/09/06 10:29:28;;;;;;;13.48;9.10;;;24.00;99.90;;;;;;5037331;28;20162;-78
2021/09/06 10:32:03;;;;;;;13.98;9.68;;;24.10;99.90;;;;;;5037106;28;20324;-77
2021/09/06 10:34:29;;;;;;;14.97;9.43;;;24.10;99.90;;;;;;5037078;28;20206;-79
2021/09/06 10:37:05;;;;;;;12.40;8.88;;;23.90;99.90;;;;;;5020738;28;20186;-77
2021/09/06 10:39:43;;;;;;;13.88;10.18;;;23.80;99.90;;;;;;5036377;28;20648;-77
2021/09/06 10:42:10;;;;;;;13.57;9.57;;;23.80;99.90;;;;;;5037841;28;20681;-78
2021/09/06 10:44:39;;;;;;;11.70;8.33;;;23.80;99.90;;;;;;5016568;28;20205;-77
2021/09/06 10:47:07;;;;;;;13.60;9.40;;;23.70;99.90;;;;;;5033824;28;20185;-78
2021/09/06 10:49:32;;;;;;;13.73;10.30;;;23.60;99.90;;;;;;5017505;28;20182;-78
2021/09/06 10:51:58;;;;;;;17.40;9.45;;;23.50;99.90;;;;;;5033207;28;20185;-79
2021/09/06 10:54:24;;;;;;;12.85;9.80;;;23.40;99.90;;;;;;5000626;28;20704;-77
2021/09/06 10:56:51;;;;;;;12.07;9.07;;;23.50;99.90;;;;;;5016865;28;20210;-78
2021/09/06 10:59:22;;;;;;;13.77;9.52;;;23.50;99.90;;;;;;5018542;28;20186;-78
2021/09/06 11:01:52;;;;;;;14.20;8.67;;;23.30;99.90;;;;;;5016452;28;20306;-77
2021/09/06 11:04:22;;;;;;;12.23;9.10;;;23.40;99.90;;;;;;5036861;28;20200;-78
2021/09/06 11:06:48;;;;;;;12.80;9.32;;;23.50;99.90;;;;;;5043149;28;20675;-78
2021/09/06 11:09:15;;;;;;;11.15;8.77;;;23.60;99.90;;;;;;5056466;28;20181;-79
2021/09/06 11:11:40;;;;;;;14.50;9.93;;;23.60;99.90;;;;;;5055271;28;20179;-78
2021/09/06 11:14:06;;;;;;;13.95;9.82;;;23.60;99.90;;;;;;5070386;28;20256;-77
2021/09/06 11:16:41;;;;;;;10.65;8.38;;;23.70;99.90;;;;;;5072612;28;20193;-78
2021/09/06 11:19:15;;;;;;;15.02;8.70;;;23.90;99.90;;;;;;5073223;28;20338;-77
2021/09/06 11:21:41;;;;;;;12.45;8.80;;;24.10;99.90;;;;;;5041671;28;20206;-78
2021/09/06 11:24:07;;;;;;;12.68;8.27;;;24.30;99.90;;;;;;5036314;28;20181;-78
2021/09/06 11:26:33;;;;;;;11.52;8.98;;;24.30;99.90;;;;;;5026804;28;20166;-79
2021/09/06 11:28:59;;;;;;;13.35;8.57;;;24.30;99.90;;;;;;5041992;28;20177;-81
2021/09/06 11:31:25;;;;;;;11.37;8.27;;;24.30;99.90;;;;;;5006410;28;20202;-81
2021/09/06 11:34:04;;;;;;;15.90;9.55;;;24.50;99.90;;;;;;5034744;28;20179;-82
2021/09/06 11:36:30;;;;;;;13.38;9.85;;;24.60;99.90;;;;;;5036249;28;20186;-82
2021/09/06 11:38:56;;;;;;;12.63;9.38;;;24.60;99.90;;;;;;5034851;28;20179;-79
2021/09/06 11:41:21;;;;;;;11.95;9.15;;;24.60;99.90;;;;;;5033249;28;20213;-80
2021/09/06 11:43:47;;;;;;;15.20;10.07;;;24.70;99.90;;;;;;5049981;28;20179;-79
2021/09/06 11:46:14;;;;;;;12.70;9.10;;;24.60;99.90;;;;;;5034408;28;20650;-79
2021/09/06 11:48:41;;;;;;;12.43;9.10;;;24.60;99.90;;;;;;5049996;28;20250;-80
2021/09/06 11:51:07;;;;;;;13.88;8.98;;;24.60;99.90;;;;;;5032964;28;20175;-80
2021/09/06 11:53:32;;;;;;;13.85;9.32;;;24.70;99.90;;;;;;5050198;28;20183;-79
2021/09/06 11:55:58;;;;;;;12.00;9.07;;;24.70;99.90;;;;;;5050201;28;20217;-81
2021/09/06 11:58:25;;;;;;;11.98;8.65;;;24.60;99.90;;;;;;5050815;28;20178;-80
2021/09/06 12:00:50;;;;;;;11.82;9.45;;;24.70;99.90;;;;;;5056398;28;20649;-81
2021/09/06 12:03:26;;;;;;;13.02;8.65;;;24.80;99.90;;;;;;5056473;28;20209;-79
2021/09/06 12:06:01;;;;;;;9.90;8.25;;;24.80;99.90;;;;;;5040471;28;20205;-79
2021/09/06 12:08:26;;;;;;;11.70;8.68;;;24.60;99.90;;;;;;5040809;28;20184;-81
2021/09/06 12:10:52;;;;;;;11.13;7.72;;;24.50;99.90;;;;;;5073742;28;20178;-82
2021/09/06 12:13:21;;;;;;;9.57;6.70;;;24.40;99.90;;;;;;5059385;28;20185;-85
2021/09/06 12:15:57;;;;;;;10.55;7.47;;;24.50;99.90;;;;;;5058886;28;20206;-82
2021/09/06 12:18:22;;;;;;;10.55;7.30;;;24.80;99.90;;;;;;5029358;28;20257;-81
2021/09/06 12:20:48;;;;;;;10.48;7.47;;;25.00;99.90;;;;;;5041894;28;20858;-81
2021/09/06 12:23:26;;;;;;;9.48;6.75;;;25.00;99.90;;;;;;5033695;28;20173;-82
2021/09/06 12:25:52;;;;;;;12.57;7.25;;;25.00;99.90;;;;;;5019872;28;20195;-81